createdAt,value
2018-06-15T00:01:01.894Z,101303.34
2018-06-15T00:02:06.445Z,101291.42
2018-06-15T00:03:10.670Z,101292.91
2018-06-15T00:04:15.258Z,101293.77
2018-06-15T00:05:19.626Z,101293.07
2018-06-15T00:06:23.839Z,101288.37
2018-06-15T00:07:28.170Z,101292.24
2018-06-15T00:08:32.408Z,101289.39
2018-06-15T00:09:37.120Z,101290.22
2018-06-15T00:10:41.331Z,101288.03
2018-06-15T00:11:45.539Z,101286.17
2018-06-15T00:12:49.807Z,101288.70
2018-06-15T00:13:54.215Z,101290.87
2018-06-15T00:14:58.438Z,101291.20
2018-06-15T00:16:02.675Z,101294.39
2018-06-15T00:17:06.890Z,101293.88
2018-06-15T00:18:11.178Z,101290.67
2018-06-15T00:19:15.362Z,101294.05
2018-06-15T00:20:19.547Z,101296.38
2018-06-15T00:21:23.854Z,101294.37
2018-06-15T00:22:28.114Z,101301.75
2018-06-15T00:23:32.327Z,101296.55
2018-06-15T00:24:37.021Z,101295.00
2018-06-15T00:25:41.247Z,101297.38
2018-06-15T00:26:45.483Z,101288.95
2018-06-15T00:27:49.884Z,101288.61
2018-06-15T00:28:54.070Z,101287.95
2018-06-15T00:29:58.239Z,101290.28
2018-06-15T00:31:02.421Z,101290.96
2018-06-15T00:32:06.860Z,101287.92
2018-06-15T00:33:11.075Z,101288.42
2018-06-15T00:34:15.562Z,101291.64
2018-06-15T00:35:19.758Z,101289.59
2018-06-15T00:36:24.081Z,101287.91
2018-06-15T00:37:28.519Z,101284.41
2018-06-15T00:38:32.730Z,101289.92
2018-06-15T00:39:37.268Z,101290.92
2018-06-15T00:40:41.475Z,101283.39
2018-06-15T00:41:46.032Z,101283.50
2018-06-15T00:42:50.318Z,101284.49
2018-06-15T00:43:54.691Z,101281.14
2018-06-15T00:44:58.988Z,101286.66
2018-06-15T00:46:03.315Z,101282.81
2018-06-15T00:47:07.533Z,101280.63
2018-06-15T00:48:11.744Z,101285.83
2018-06-15T00:49:15.984Z,101279.43
2018-06-15T00:50:20.330Z,101277.73
2018-06-15T00:51:24.603Z,101277.89
2018-06-15T00:52:28.835Z,101286.12
2018-06-15T00:53:33.415Z,101281.43
2018-06-15T00:54:37.743Z,101282.42
2018-06-15T00:55:42.071Z,101279.03
2018-06-15T00:56:57.617Z,101282.40
2018-06-15T00:58:02.175Z,101283.92
2018-06-15T00:59:06.468Z,101286.75
2018-06-15T01:00:10.698Z,101285.91
2018-06-15T01:01:14.879Z,101276.00
2018-06-15T01:02:19.157Z,101282.72
2018-06-15T01:03:23.457Z,101286.75
2018-06-15T01:04:27.718Z,101282.72
2018-06-15T01:05:32.108Z,101283.07
2018-06-15T01:06:36.292Z,101284.23
2018-06-15T01:07:40.521Z,101288.44
2018-06-15T01:08:45.215Z,101279.03
2018-06-15T01:09:49.885Z,101281.08
2018-06-15T01:10:54.228Z,101278.56
2018-06-15T01:11:58.427Z,101285.13
2018-06-15T01:13:02.637Z,101273.04
2018-06-15T01:14:06.972Z,101278.58
2018-06-15T01:15:11.520Z,101271.37
2018-06-15T01:16:16.443Z,101273.03
2018-06-15T01:17:20.710Z,101271.69
2018-06-15T01:18:25.507Z,101272.22
2018-06-15T01:19:29.882Z,101261.11
2018-06-15T01:20:34.116Z,101269.33
2018-06-15T01:21:38.745Z,101264.98
2018-06-15T01:22:43.026Z,101262.94
2018-06-15T01:23:47.191Z,101260.73
2018-06-15T01:24:51.597Z,101267.30
2018-06-15T01:25:55.826Z,101264.60
2018-06-15T01:27:00.039Z,101261.25
2018-06-15T01:28:04.235Z,101265.92
2018-06-15T01:29:08.427Z,101259.38
2018-06-15T01:30:12.622Z,101262.22
2018-06-15T01:31:16.832Z,101261.05
2018-06-15T01:32:21.418Z,101263.39
2018-06-15T01:33:25.560Z,101259.01
2018-06-15T01:34:29.727Z,101264.56
2018-06-15T01:35:34.067Z,101257.84
2018-06-15T01:36:38.352Z,101261.88
2018-06-15T01:37:42.897Z,101258.34
2018-06-15T01:38:47.066Z,101259.33
2018-06-15T01:39:51.251Z,101259.83
2018-06-15T01:40:55.760Z,101260.85
2018-06-15T01:42:00.050Z,101253.29
2018-06-15T01:43:04.257Z,101258.17
2018-06-15T01:44:08.923Z,101257.67
2018-06-15T01:45:13.091Z,101256.33
2018-06-15T01:46:17.291Z,101258.17
2018-06-15T01:47:21.542Z,101263.05
2018-06-15T01:48:25.754Z,101255.30
2018-06-15T01:49:29.946Z,101255.16
2018-06-15T01:50:34.210Z,101257.66
2018-06-15T01:51:38.406Z,101255.18
2018-06-15T01:52:43.154Z,101252.31
2018-06-15T01:53:47.552Z,101253.83
2018-06-15T01:54:51.834Z,101258.06
2018-06-15T01:55:56.018Z,101255.20
2018-06-15T01:57:00.299Z,101253.70
2018-06-15T01:58:04.626Z,101253.36
2018-06-15T01:59:08.814Z,101248.33
2018-06-15T02:00:12.950Z,101247.83
2018-06-15T02:01:17.317Z,101254.02
2018-06-15T02:02:21.466Z,101253.03
2018-06-15T02:03:25.666Z,101251.53
2018-06-15T02:04:29.934Z,101250.51
2018-06-15T02:05:34.137Z,101249.87
2018-06-15T02:06:38.298Z,101246.15
2018-06-15T02:07:42.926Z,101245.16
2018-06-15T02:08:47.147Z,101243.13
2018-06-15T02:09:51.673Z,101258.27
2018-06-15T02:10:55.866Z,101244.83
2018-06-15T02:12:00.235Z,101251.05
2018-06-15T02:13:04.528Z,101248.36
2018-06-15T02:14:08.887Z,101247.16
2018-06-15T02:15:13.181Z,101247.16
2018-06-15T02:16:17.376Z,101247.16
2018-06-15T02:17:22.107Z,101245.83
2018-06-15T02:18:26.320Z,101243.31
2018-06-15T02:19:30.594Z,101240.45
2018-06-15T02:20:34.872Z,101250.86
2018-06-15T02:21:39.303Z,101250.20
2018-06-15T02:22:43.687Z,101248.15
2018-06-15T02:23:47.913Z,101247.30
2018-06-15T02:24:52.520Z,101252.86
2018-06-15T02:25:56.737Z,101252.02
2018-06-15T02:27:00.892Z,101251.66
2018-06-15T02:28:05.091Z,101257.88
2018-06-15T02:29:09.303Z,101254.70
2018-06-15T02:30:13.526Z,101259.92
2018-06-15T02:31:17.688Z,101253.52
2018-06-15T02:32:22.078Z,101252.35
2018-06-15T02:33:26.270Z,101251.21
2018-06-15T02:34:30.480Z,101254.22
2018-06-15T02:35:34.832Z,101251.38
2018-06-15T02:36:39.136Z,101254.23
2018-06-15T02:37:43.566Z,101254.94
2018-06-15T02:38:48.254Z,101254.75
2018-06-15T02:39:52.442Z,101254.61
2018-06-15T02:40:56.758Z,101254.08
2018-06-15T02:42:00.933Z,101255.27
2018-06-15T02:43:05.134Z,101261.00
2018-06-15T02:44:09.342Z,101256.50
2018-06-15T02:45:13.605Z,101258.31
2018-06-15T02:46:17.818Z,101264.88
2018-06-15T02:47:22.092Z,101264.03
2018-06-15T02:48:26.364Z,101265.73
2018-06-15T02:49:30.505Z,101264.03
2018-06-15T02:50:34.677Z,101263.04
2018-06-15T02:51:39.156Z,101262.69
2018-06-15T02:52:43.383Z,101262.19
2018-06-15T02:53:48.137Z,101263.04
2018-06-15T02:54:52.337Z,101261.20
2018-06-15T02:55:56.633Z,101266.08
2018-06-15T02:57:00.890Z,101266.39
2018-06-15T02:58:05.104Z,101259.36
2018-06-15T02:59:09.304Z,101266.39
2018-06-15T03:00:13.466Z,101264.73
2018-06-15T03:01:17.644Z,101265.05
2018-06-15T03:02:21.883Z,101266.25
2018-06-15T03:03:26.097Z,101265.40
2018-06-15T03:04:30.378Z,101271.27
2018-06-15T03:05:34.591Z,101269.78
2018-06-15T03:06:38.850Z,101270.28
2018-06-15T03:07:43.049Z,101270.28
2018-06-15T03:08:47.352Z,101268.09
2018-06-15T03:09:51.591Z,101275.16
2018-06-15T03:10:55.784Z,101267.94
2018-06-15T03:11:59.976Z,101271.47
2018-06-15T03:13:04.231Z,101264.75
2018-06-15T03:14:08.426Z,101268.78
2018-06-15T03:15:12.607Z,101266.91
2018-06-15T03:16:16.907Z,101266.91
2018-06-15T03:17:21.232Z,101268.78
2018-06-15T03:18:25.471Z,101267.76
2018-06-15T03:19:29.802Z,101275.51
2018-06-15T03:20:34.016Z,101268.78
2018-06-15T03:21:38.256Z,101271.63
2018-06-15T03:22:42.449Z,101274.16
2018-06-15T03:23:46.656Z,101272.82
2018-06-15T03:24:51.037Z,101269.78
2018-06-15T03:25:55.759Z,101272.47
2018-06-15T03:26:59.936Z,101272.47
2018-06-15T03:28:04.220Z,101267.73
2018-06-15T03:29:08.524Z,101273.47
2018-06-15T03:30:12.770Z,101272.30
2018-06-15T03:31:16.913Z,101273.80
2018-06-15T03:32:21.144Z,101276.48
2018-06-15T03:33:25.369Z,101286.54
2018-06-15T03:34:29.670Z,101276.42
2018-06-15T03:35:33.903Z,101277.61
2018-06-15T03:36:38.226Z,101279.45
2018-06-15T03:37:42.460Z,101281.12
2018-06-15T03:38:46.634Z,101276.06
2018-06-15T03:39:51.257Z,101279.08
2018-06-15T03:40:56.299Z,101279.41
2018-06-15T03:42:00.643Z,101280.41
2018-06-15T03:43:04.804Z,101274.01
2018-06-15T03:44:09.250Z,101279.03
2018-06-15T03:45:13.561Z,101275.18
2018-06-15T03:46:17.718Z,101284.73
2018-06-15T03:47:22.272Z,101281.73
2018-06-15T03:48:26.602Z,101284.91
2018-06-15T03:49:30.866Z,101285.41
2018-06-15T03:50:35.099Z,101278.34
2018-06-15T03:51:39.336Z,101277.00
2018-06-15T03:52:43.468Z,101278.34
2018-06-15T03:53:47.859Z,101275.34
2018-06-15T03:54:52.023Z,101282.38
2018-06-15T03:55:56.542Z,101285.23
2018-06-15T03:57:01.160Z,101287.43
2018-06-15T03:58:05.634Z,101290.26
2018-06-15T03:59:09.857Z,101296.48
2018-06-15T04:00:14.107Z,101301.86
2018-06-15T04:01:18.370Z,101297.83
2018-06-15T04:02:22.791Z,101300.86
2018-06-15T04:03:26.930Z,101297.50
2018-06-15T04:04:31.274Z,101298.84
2018-06-15T04:05:35.398Z,101300.54
2018-06-15T04:06:39.654Z,101301.70
2018-06-15T04:07:44.065Z,101302.55
2018-06-15T04:08:48.270Z,101299.54
2018-06-15T04:09:52.438Z,101298.20
2018-06-15T04:10:56.640Z,101303.25
2018-06-15T04:12:00.981Z,101305.30
2018-06-15T04:13:05.260Z,101307.30
2018-06-15T04:14:09.555Z,101298.56
2018-06-15T04:15:13.745Z,101294.39
2018-06-15T04:16:18.068Z,101296.89
2018-06-15T04:17:22.220Z,101296.25
2018-06-15T04:18:26.715Z,101296.92
2018-06-15T04:19:30.878Z,101296.42
2018-06-15T04:20:36.353Z,101292.24
2018-06-15T04:21:40.499Z,101295.59
2018-06-15T04:22:44.727Z,101299.13
2018-06-15T04:23:49.175Z,101296.83
2018-06-15T04:24:53.588Z,101295.66
2018-06-15T04:25:58.013Z,101298.66
2018-06-15T04:27:02.288Z,101296.81
2018-06-15T04:28:06.521Z,101288.75
2018-06-15T04:29:10.678Z,101301.20
2018-06-15T04:30:14.892Z,101300.70
2018-06-15T04:31:19.104Z,101304.23
2018-06-15T04:32:23.381Z,101312.63
2018-06-15T04:33:27.667Z,101307.09
2018-06-15T04:34:31.940Z,101298.53
2018-06-15T04:35:36.171Z,101304.22
2018-06-15T04:36:40.307Z,101306.77
2018-06-15T04:37:44.656Z,101305.77
2018-06-15T04:38:48.895Z,101307.96
2018-06-15T04:39:53.052Z,101310.12
2018-06-15T04:40:57.295Z,101309.48
2018-06-15T04:42:01.444Z,101305.77
2018-06-15T04:43:05.690Z,101315.02
2018-06-15T04:44:09.898Z,101321.60
2018-06-15T04:45:14.108Z,101319.23
2018-06-15T04:46:18.607Z,101318.23
2018-06-15T04:47:22.891Z,101319.92
2018-06-15T04:48:27.146Z,101324.28
2018-06-15T04:49:31.659Z,101318.89
2018-06-15T04:50:35.944Z,101320.59
2018-06-15T04:51:40.088Z,101316.06
2018-06-15T04:52:44.838Z,101323.13
2018-06-15T04:53:50.062Z,101324.48
2018-06-15T04:54:54.355Z,101321.26
2018-06-15T04:55:58.647Z,101321.61
2018-06-15T04:57:02.883Z,101324.64
2018-06-15T04:58:07.151Z,101319.58
2018-06-15T04:59:11.347Z,101324.31
2018-06-15T05:00:15.604Z,101327.67
2018-06-15T05:01:19.738Z,101321.80
2018-06-15T05:02:24.013Z,101317.92
2018-06-15T05:03:28.132Z,101320.96
2018-06-15T05:04:32.332Z,101325.66
2018-06-15T05:05:36.537Z,101316.09
2018-06-15T05:06:40.758Z,101323.17
2018-06-15T05:07:45.208Z,101323.98
2018-06-15T05:08:49.375Z,101318.80
2018-06-15T05:09:53.761Z,101322.31
2018-06-15T05:10:57.999Z,101313.42
2018-06-15T05:12:02.241Z,101312.89
2018-06-15T05:13:06.497Z,101312.74
2018-06-15T05:14:10.677Z,101317.63
2018-06-15T05:15:14.982Z,101325.52
2018-06-15T05:16:19.235Z,101323.67
2018-06-15T05:17:23.646Z,101326.21
2018-06-15T05:18:27.830Z,101323.02
2018-06-15T05:19:31.991Z,101324.69
2018-06-15T05:20:36.175Z,101322.34
2018-06-15T05:21:40.376Z,101321.66
2018-06-15T05:22:44.658Z,101319.81
2018-06-15T05:23:48.974Z,101316.13
2018-06-15T05:24:53.177Z,101321.01
2018-06-15T05:25:57.844Z,101315.95
2018-06-15T05:27:02.346Z,101317.98
2018-06-15T05:28:06.579Z,101312.60
2018-06-15T05:29:10.820Z,101317.30
2018-06-15T05:30:15.052Z,101323.03
2018-06-15T05:31:19.274Z,101312.77
2018-06-15T05:32:23.814Z,101314.61
2018-06-15T05:33:28.619Z,101314.30
2018-06-15T05:34:32.835Z,101320.67
2018-06-15T05:35:38.050Z,101322.36
2018-06-15T05:36:42.232Z,101324.70
2018-06-15T05:37:46.466Z,101318.97
2018-06-15T05:38:50.667Z,101323.00
2018-06-15T05:39:54.919Z,101323.35
2018-06-15T05:40:59.174Z,101327.41
2018-06-15T05:42:03.706Z,101320.17
2018-06-15T05:43:08.097Z,101324.05
2018-06-15T05:44:12.290Z,101332.84
2018-06-15T05:45:16.476Z,101335.37
2018-06-15T05:46:20.643Z,101336.03
2018-06-15T05:47:25.115Z,101326.46
2018-06-15T05:48:29.339Z,101326.13
2018-06-15T05:49:33.624Z,101327.63
2018-06-15T05:50:37.996Z,101323.43
2018-06-15T05:51:42.441Z,101328.63
2018-06-15T05:52:46.824Z,101330.32
2018-06-15T05:53:51.108Z,101329.32
2018-06-15T05:54:55.409Z,101331.48
2018-06-15T05:55:59.599Z,101324.77
2018-06-15T05:57:04.095Z,101322.42
2018-06-15T05:58:09.120Z,101324.24
2018-06-15T05:59:13.550Z,101329.82
2018-06-15T06:00:17.753Z,101337.55
2018-06-15T06:01:21.906Z,101333.52
2018-06-15T06:02:26.207Z,101329.79
2018-06-15T06:03:30.362Z,101335.02
2018-06-15T06:04:34.688Z,101336.88
2018-06-15T06:05:38.918Z,101333.33
2018-06-15T06:06:43.180Z,101335.34
2018-06-15T06:07:47.369Z,101341.58
2018-06-15T06:08:51.578Z,101347.66
2018-06-15T06:09:55.891Z,101344.61
2018-06-15T06:11:00.124Z,101344.42
2018-06-15T06:12:04.280Z,101351.35
2018-06-15T06:13:08.455Z,101355.05
2018-06-15T06:14:12.690Z,101348.31
2018-06-15T06:15:16.894Z,101350.98
2018-06-15T06:16:21.082Z,101354.02
2018-06-15T06:17:25.263Z,101357.38
2018-06-15T06:18:29.605Z,101356.02
2018-06-15T06:19:34.502Z,101355.68
2018-06-15T06:20:38.798Z,101361.23
2018-06-15T06:21:42.998Z,101354.33
2018-06-15T06:22:47.152Z,101358.19
2018-06-15T06:23:51.488Z,101361.10
2018-06-15T06:24:55.685Z,101361.06
2018-06-15T06:26:00.336Z,101360.56
2018-06-15T06:27:04.575Z,101364.11
2018-06-15T06:28:08.760Z,101360.22
2018-06-15T06:29:13.011Z,101363.45
2018-06-15T06:30:17.218Z,101360.41
2018-06-15T06:31:21.625Z,101364.95
2018-06-15T06:32:25.999Z,101361.60
2018-06-15T06:33:30.232Z,101365.95
2018-06-15T06:34:34.438Z,101360.56
2018-06-15T06:35:38.813Z,101367.50
2018-06-15T06:36:43.077Z,101372.55
2018-06-15T06:37:47.289Z,101369.19
2018-06-15T06:38:51.482Z,101372.38
2018-06-15T06:39:55.729Z,101367.84
2018-06-15T06:41:00.207Z,101375.93
2018-06-15T06:42:04.776Z,101371.04
2018-06-15T06:43:09.121Z,101368.16
2018-06-15T06:44:13.731Z,101374.55
2018-06-15T06:45:18.106Z,101379.24
2018-06-15T06:46:22.301Z,101368.76
2018-06-15T06:47:26.588Z,101368.59
2018-06-15T06:48:31.386Z,101371.94
2018-06-15T06:49:35.566Z,101374.59
2018-06-15T06:50:39.837Z,101371.17
2018-06-15T06:51:43.984Z,101367.76
2018-06-15T06:52:48.227Z,101371.23
2018-06-15T06:53:52.458Z,101364.82
2018-06-15T06:54:56.712Z,101366.11
2018-06-15T06:56:00.980Z,101362.67
2018-06-15T06:57:05.157Z,101361.28
2018-06-15T06:58:09.409Z,101360.19
2018-06-15T06:59:13.574Z,101363.68
2018-06-15T07:00:17.804Z,101355.70
2018-06-15T07:01:22.047Z,101359.55
2018-06-15T07:02:26.367Z,101365.38
2018-06-15T07:03:30.612Z,101363.98
2018-06-15T07:04:34.924Z,101366.12
2018-06-15T07:05:39.093Z,101364.56
2018-06-15T07:06:43.429Z,101369.37
2018-06-15T07:07:47.775Z,101366.13
2018-06-15T07:08:52.017Z,101363.05
2018-06-15T07:09:56.231Z,101363.70
2018-06-15T07:11:00.901Z,101364.34
2018-06-15T07:12:05.086Z,101363.67
2018-06-15T07:13:09.354Z,101367.02
2018-06-15T07:14:13.613Z,101361.30
2018-06-15T07:15:17.779Z,101362.11
2018-06-15T07:16:21.966Z,101364.00
2018-06-15T07:17:26.212Z,101362.95
2018-06-15T07:18:30.615Z,101368.00
2018-06-15T07:19:35.154Z,101364.27
2018-06-15T07:20:39.386Z,101362.22
2018-06-15T07:21:43.697Z,101361.20
2018-06-15T07:22:48.030Z,101371.64
2018-06-15T07:23:52.264Z,101370.42
2018-06-15T07:24:56.527Z,101371.23
2018-06-15T07:26:00.934Z,101366.42
2018-06-15T07:27:05.169Z,101365.67
2018-06-15T07:28:09.402Z,101368.98
2018-06-15T07:29:13.584Z,101369.31
2018-06-15T07:30:17.787Z,101364.88
2018-06-15T07:31:21.972Z,101363.98
2018-06-15T07:32:26.255Z,101359.09
2018-06-15T07:33:30.535Z,101356.38
2018-06-15T07:34:34.738Z,101359.92
2018-06-15T07:35:38.992Z,101361.79
2018-06-15T07:37:47.096Z,101362.88
2018-06-15T07:38:51.278Z,101359.50
2018-06-15T07:39:55.686Z,101357.31
2018-06-15T07:40:59.962Z,101363.56
2018-06-15T07:42:04.326Z,101360.48
2018-06-15T07:43:08.511Z,101361.84
2018-06-15T07:44:12.809Z,101363.19
2018-06-15T07:45:17.048Z,101361.84
2018-06-15T07:46:21.247Z,101363.05
2018-06-15T07:47:25.454Z,101363.39
2018-06-15T07:48:29.639Z,101365.89
2018-06-15T07:49:33.945Z,101367.25
2018-06-15T07:50:38.242Z,101362.88
2018-06-15T07:51:42.554Z,101367.95
2018-06-15T07:52:46.792Z,101370.66
2018-06-15T07:53:50.992Z,101365.25
2018-06-15T07:54:55.363Z,101365.89
2018-06-15T07:55:59.713Z,101367.45
2018-06-15T07:57:05.427Z,101365.25
2018-06-15T07:58:09.700Z,101369.95
2018-06-15T07:59:13.962Z,101364.92
2018-06-15T08:00:18.216Z,101367.16
2018-06-15T08:01:22.446Z,101367.88
2018-06-15T08:02:26.800Z,101368.59
2018-06-15T08:03:31.139Z,101367.74
2018-06-15T08:04:35.390Z,101367.41
2018-06-15T08:05:39.860Z,101369.09
2018-06-15T08:06:44.303Z,101362.13
2018-06-15T08:07:48.604Z,101368.01
2018-06-15T08:08:52.877Z,101364.11
2018-06-15T08:09:57.290Z,101360.48
2018-06-15T08:11:01.517Z,101366.94
2018-06-15T08:12:05.821Z,101367.92
2018-06-15T08:13:10.006Z,101362.97
2018-06-15T08:14:14.545Z,101364.12
2018-06-15T08:15:18.822Z,101361.03
2018-06-15T08:16:23.046Z,101365.43
2018-06-15T08:17:27.516Z,101363.36
2018-06-15T08:18:31.723Z,101367.25
2018-06-15T08:19:35.918Z,101363.19
2018-06-15T08:20:40.306Z,101365.18
2018-06-15T08:21:44.565Z,101364.67
2018-06-15T08:22:48.751Z,101367.20
2018-06-15T08:23:53.003Z,101367.00
2018-06-15T08:24:57.172Z,101363.06
2018-06-15T08:26:01.527Z,101369.61
2018-06-15T08:27:05.907Z,101364.12
2018-06-15T08:28:10.118Z,101360.80
2018-06-15T08:29:14.419Z,101364.10
2018-06-15T08:30:18.829Z,101359.09
2018-06-15T08:31:23.056Z,101361.34
2018-06-15T08:32:27.344Z,101363.30
2018-06-15T08:33:31.635Z,101363.25
2018-06-15T08:34:36.064Z,101359.47
2018-06-15T08:35:40.376Z,101363.77
2018-06-15T08:36:44.577Z,101357.78
2018-06-15T08:37:48.741Z,101357.40
2018-06-15T08:38:53.012Z,101355.66
2018-06-15T08:39:57.225Z,101350.86
2018-06-15T08:41:01.447Z,101358.61
2018-06-15T08:42:05.720Z,101367.19
2018-06-15T08:43:09.908Z,101356.16
2018-06-15T08:44:14.095Z,101359.72
2018-06-15T08:45:18.357Z,101358.37
2018-06-15T08:46:22.778Z,101362.73
2018-06-15T08:47:27.330Z,101362.04
2018-06-15T08:48:31.835Z,101357.12
2018-06-15T08:49:36.016Z,101360.69
2018-06-15T08:50:40.376Z,101355.27
2018-06-15T08:51:44.707Z,101354.88
2018-06-15T08:52:48.919Z,101353.19
2018-06-15T08:53:53.167Z,101349.52
2018-06-15T08:54:57.574Z,101352.61
2018-06-15T08:56:01.935Z,101353.73
2018-06-15T08:57:06.202Z,101357.34
2018-06-15T08:58:10.451Z,101354.69
2018-06-15T08:59:14.701Z,101355.92
2018-06-15T09:00:19.385Z,101352.55
2018-06-15T09:01:23.811Z,101351.91
2018-06-15T09:02:28.111Z,101347.22
2018-06-15T09:03:32.259Z,101349.27
2018-06-15T09:04:36.429Z,101355.19
2018-06-15T09:05:40.673Z,101347.91
2018-06-15T09:06:44.871Z,101352.81
2018-06-15T09:07:49.158Z,101352.75
2018-06-15T09:08:53.836Z,101348.64
2018-06-15T09:09:58.075Z,101350.74
2018-06-15T09:11:02.257Z,101354.12
2018-06-15T09:12:06.654Z,101351.02
2018-06-15T09:13:10.900Z,101354.18
2018-06-15T09:14:15.211Z,101352.22
2018-06-15T09:15:19.639Z,101355.20
2018-06-15T09:16:23.865Z,101347.52
2018-06-15T09:17:28.084Z,101349.95
2018-06-15T09:18:32.477Z,101349.68
2018-06-15T09:19:36.645Z,101345.16
2018-06-15T09:20:40.846Z,101350.52
2018-06-15T09:21:45.083Z,101358.07
2018-06-15T09:22:49.337Z,101352.46
2018-06-15T09:23:53.541Z,101351.55
2018-06-15T09:24:57.731Z,101341.73
2018-06-15T09:26:02.441Z,101347.48
2018-06-15T09:27:06.706Z,101348.52
2018-06-15T09:28:10.947Z,101343.48
2018-06-15T09:29:15.246Z,101349.42
2018-06-15T09:30:19.491Z,101354.84
2018-06-15T09:31:23.670Z,101343.16
2018-06-15T09:32:27.854Z,101344.33
2018-06-15T09:33:32.341Z,101347.38
2018-06-15T09:34:36.880Z,101352.91
2018-06-15T09:35:41.175Z,101350.83
2018-06-15T09:36:45.343Z,101347.72
2018-06-15T09:37:49.683Z,101351.59
2018-06-15T09:38:54.138Z,101351.09
2018-06-15T09:39:58.300Z,101350.36
2018-06-15T09:41:02.527Z,101352.89
2018-06-15T09:42:06.837Z,101346.92
2018-06-15T09:43:11.027Z,101348.94
2018-06-15T09:44:15.341Z,101343.80
2018-06-15T09:45:19.711Z,101348.20
2018-06-15T09:46:23.914Z,101348.53
2018-06-15T09:47:28.197Z,101349.89
2018-06-15T09:48:33.258Z,101344.46
2018-06-15T09:49:37.651Z,101349.89
2018-06-15T09:50:41.870Z,101348.53
2018-06-15T09:51:46.013Z,101346.66
2018-06-15T09:52:50.290Z,101348.46
2018-06-15T09:53:54.497Z,101347.73
2018-06-15T09:54:58.950Z,101343.77
2018-06-15T09:56:03.143Z,101352.58
2018-06-15T09:57:07.563Z,101340.48
2018-06-15T09:58:11.768Z,101345.83
2018-06-15T09:59:16.331Z,101340.30
2018-06-15T10:00:25.813Z,101347.52
2018-06-15T10:01:29.958Z,101343.05
2018-06-15T10:02:34.170Z,101342.13
2018-06-15T10:03:39.275Z,101345.09
2018-06-15T10:04:43.477Z,101348.77
2018-06-15T10:05:48.075Z,101351.07
2018-06-15T10:06:52.247Z,101348.69
2018-06-15T10:07:56.456Z,101354.25
2018-06-15T10:09:00.691Z,101348.69
2018-06-15T10:10:04.918Z,101342.41
2018-06-15T10:11:09.147Z,101346.38
2018-06-15T10:12:13.512Z,101340.29
2018-06-15T10:13:17.770Z,101353.53
2018-06-15T10:14:21.985Z,101355.30
2018-06-15T10:15:26.426Z,101347.89
2018-06-15T10:16:30.602Z,101342.86
2018-06-15T10:17:35.265Z,101355.48
2018-06-15T10:18:39.749Z,101338.42
2018-06-15T10:19:44.112Z,101337.69
2018-06-15T10:20:48.349Z,101344.33
2018-06-15T10:21:52.736Z,101344.73
2018-06-15T10:22:56.922Z,101342.42
2018-06-15T10:24:01.169Z,101345.34
2018-06-15T10:25:05.436Z,101344.69
2018-06-15T10:26:09.909Z,101346.38
2018-06-15T10:27:14.233Z,101350.45
2018-06-15T10:28:18.448Z,101343.48
2018-06-15T10:29:22.767Z,101339.19
2018-06-15T10:30:26.924Z,101342.23
2018-06-15T10:31:31.130Z,101339.52
2018-06-15T10:32:35.319Z,101341.17
2018-06-15T10:33:39.477Z,101337.77
2018-06-15T10:34:43.837Z,101340.80
2018-06-15T10:35:48.003Z,101342.16
2018-06-15T10:36:52.187Z,101337.55
2018-06-15T10:37:56.578Z,101338.27
2018-06-15T10:39:00.827Z,101339.52
2018-06-15T10:40:05.083Z,101332.41
2018-06-15T10:41:09.312Z,101335.45
2018-06-15T10:42:13.488Z,101337.95
2018-06-15T10:43:17.755Z,101337.43
2018-06-15T10:44:21.933Z,101336.08
2018-06-15T10:45:26.127Z,101336.73
2018-06-15T10:46:30.382Z,101332.12
2018-06-15T10:47:34.808Z,101330.06
2018-06-15T10:48:39.099Z,101330.58
2018-06-15T10:49:43.282Z,101329.30
2018-06-15T10:50:47.472Z,101338.67
2018-06-15T10:51:51.655Z,101335.34
2018-06-15T10:52:56.285Z,101334.79
2018-06-15T10:54:00.771Z,101335.85
2018-06-15T10:55:05.125Z,101332.81
2018-06-15T10:56:09.305Z,101332.08
2018-06-15T10:57:13.500Z,101335.13
2018-06-15T10:58:17.675Z,101335.75
2018-06-15T10:59:21.907Z,101331.82
2018-06-15T11:00:26.059Z,101331.42
2018-06-15T11:01:30.260Z,101333.52
2018-06-15T11:02:34.474Z,101330.20
2018-06-15T11:03:38.601Z,101335.16
2018-06-15T11:04:42.771Z,101325.03
2018-06-15T11:05:46.939Z,101330.71
2018-06-15T11:06:51.133Z,101335.25
2018-06-15T11:07:55.441Z,101324.50
2018-06-15T11:08:59.841Z,101326.48
2018-06-15T11:10:04.087Z,101322.22
2018-06-15T11:11:08.297Z,101328.59
2018-06-15T11:12:12.639Z,101319.53
2018-06-15T11:13:16.791Z,101331.02
2018-06-15T11:14:21.205Z,101322.45
2018-06-15T11:15:25.469Z,101322.27
2018-06-15T11:16:29.607Z,101319.03
2018-06-15T11:17:34.132Z,101324.80
2018-06-15T11:18:38.395Z,101314.23
2018-06-15T11:19:42.744Z,101321.34
2018-06-15T11:20:46.955Z,101318.41
2018-06-15T11:21:51.174Z,101319.05
2018-06-15T11:22:55.347Z,101316.96
2018-06-15T11:23:59.535Z,101321.47
2018-06-15T11:25:04.162Z,101318.56
2018-06-15T11:26:08.361Z,101312.28
2018-06-15T11:27:13.509Z,101313.31
2018-06-15T11:28:17.771Z,101317.39
2018-06-15T11:29:22.046Z,101311.63
2018-06-15T11:30:26.255Z,101308.63
2018-06-15T11:31:30.459Z,101310.83
2018-06-15T11:32:34.822Z,101306.02
2018-06-15T11:33:39.128Z,101299.32
2018-06-15T11:34:43.319Z,101302.47
2018-06-15T11:35:47.555Z,101308.66
2018-06-15T11:36:51.934Z,101307.50
2018-06-15T11:37:56.080Z,101301.14
2018-06-15T11:39:00.298Z,101308.69
2018-06-15T11:40:04.548Z,101308.97
2018-06-15T11:41:08.738Z,101304.61
2018-06-15T11:42:13.247Z,101306.16
2018-06-15T11:43:17.623Z,101301.75
2018-06-15T11:44:21.755Z,101299.78
2018-06-15T11:45:26.059Z,101296.73
2018-06-15T11:46:30.199Z,101294.44
2018-06-15T11:47:34.541Z,101295.91
2018-06-15T11:48:38.730Z,101295.48
2018-06-15T11:49:43.020Z,101301.01
2018-06-15T11:50:47.329Z,101297.86
2018-06-15T11:51:51.483Z,101288.87
2018-06-15T11:52:55.783Z,101290.64
2018-06-15T11:54:00.413Z,101286.79
2018-06-15T11:55:05.003Z,101288.01
2018-06-15T11:56:09.196Z,101291.79
2018-06-15T11:57:13.432Z,101284.67
2018-06-15T11:58:17.635Z,101281.12
2018-06-15T11:59:21.947Z,101282.80
2018-06-15T12:00:26.088Z,101281.12
2018-06-15T12:01:30.302Z,101284.86
2018-06-15T12:02:34.489Z,101279.84
2018-06-15T12:03:38.710Z,101278.38
2018-06-15T12:04:42.863Z,101273.69
2018-06-15T12:05:47.002Z,101277.11
2018-06-15T12:06:51.167Z,101276.81
2018-06-15T12:07:55.337Z,101271.25
2018-06-15T12:08:59.489Z,101276.48
2018-06-15T12:10:03.680Z,101272.41
2018-06-15T12:11:07.847Z,101279.53
2018-06-15T12:12:12.208Z,101271.38
2018-06-15T12:13:16.354Z,101270.32
2018-06-15T12:14:20.578Z,101273.36
2018-06-15T12:15:24.767Z,101274.20